Terminal Aerodrome Forecast
Issued by NWS

Home | Current Version | Previous Version | Text Only | Print | Product List | Glossary On
Versions: 1 2 3 4 5 6 7 8 9 10 11 12 13 14 15 16 17 18 19 20
395
FTUS43 KDLH 231139
TAFBRD
TAF
KBRD 231139Z 2312/2412 36009KT P6SM BKN012
     FM231600 01008KT P6SM SCT015
     FM240800 01012G20KT P6SM SCT020 OVC120=

USA.gov is the U.S. government's official web portal to all federal, state and local government web resources and services.